Time;durP1;ratioP1;P1;durP2;ratioP2;P2;SDS_P1;SDS_P2;PMS_P1;PMS_P2;Temp;Humidity;BMP_temperature;BMP_pressure;BME280_temperature;BME280_humidity;BME280_pressure;Samples;Min_cycle;Max_cycle;Signal;HPM_P1;HPM_P2
2022/11/12 00:01:20;;;;;;;3.37;3.10;;;5.60;99.90;;;;;;4999839;28;20975;-73
2022/11/12 00:03:46;;;;;;;4.07;3.67;;;5.50;99.90;;;;;;5000847;28;20436;-72
2022/11/12 00:06:11;;;;;;;4.10;3.70;;;5.60;99.90;;;;;;5001143;28;20377;-72
2022/11/12 00:08:37;;;;;;;3.90;3.30;;;5.70;99.90;;;;;;5002143;28;20485;-73
2022/11/12 00:11:03;;;;;;;3.33;3.03;;;5.60;99.90;;;;;;5000370;28;20379;-73
2022/11/12 00:13:29;;;;;;;3.40;3.10;;;5.70;99.90;;;;;;5000851;28;20385;-73
2022/11/12 00:15:55;;;;;;;3.90;3.00;;;5.70;99.90;;;;;;5001898;28;20398;-73
2022/11/12 00:18:21;;;;;;;3.13;2.83;;;5.60;99.90;;;;;;5000093;28;20422;-72
2022/11/12 00:20:46;;;;;;;3.40;3.10;;;5.60;99.90;;;;;;5001621;28;20443;-72
2022/11/12 00:23:12;;;;;;;3.60;3.30;;;5.60;99.90;;;;;;5001189;28;20470;-71
2022/11/12 00:25:37;;;;;;;3.10;2.80;;;5.60;99.90;;;;;;5000245;28;20419;-72
2022/11/12 00:28:08;;;;;;;3.20;2.30;;;5.60;99.90;;;;;;5000261;28;20471;-72
2022/11/12 00:30:36;;;;;;;3.08;2.70;;;5.70;99.90;;;;;;5004472;28;20384;-71
2022/11/12 00:33:03;;;;;;;2.65;2.45;;;5.60;99.90;;;;;;5010054;28;20899;-72
2022/11/12 00:35:31;;;;;;;3.15;2.25;;;5.60;99.90;;;;;;4991642;28;20868;-72
2022/11/12 00:37:57;;;;;;;2.85;2.65;;;5.60;99.90;;;;;;4991460;28;20395;-72
2022/11/12 00:40:23;;;;;;;2.60;2.40;;;5.70;99.90;;;;;;4991448;28;20386;-72
2022/11/12 00:42:51;;;;;;;3.00;2.60;;;5.60;99.90;;;;;;4990546;28;20757;-72
2022/11/12 00:45:17;;;;;;;4.45;2.40;;;5.60;99.90;;;;;;4991537;28;20869;-72
2022/11/12 00:47:43;;;;;;;6.75;2.95;;;5.60;99.90;;;;;;4991176;28;20417;-72
2022/11/12 00:50:09;;;;;;;2.85;2.47;;;5.60;99.90;;;;;;4991484;28;20865;-72
2022/11/12 00:52:34;;;;;;;3.13;2.30;;;5.50;99.90;;;;;;4991007;28;20390;-72
2022/11/12 00:55:00;;;;;;;2.60;2.40;;;5.40;99.90;;;;;;4991307;28;20382;-73
2022/11/12 00:57:26;;;;;;;2.40;2.20;;;5.40;99.90;;;;;;4991186;28;20400;-72
2022/11/12 00:59:51;;;;;;;2.30;2.10;;;5.50;99.90;;;;;;4989985;28;20448;-72
2022/11/12 01:02:17;;;;;;;2.70;2.45;;;5.50;99.90;;;;;;4991361;28;20401;-72
2022/11/12 01:04:42;;;;;;;2.40;2.20;;;5.50;99.90;;;;;;4990911;28;20386;-72
2022/11/12 01:07:08;;;;;;;3.00;2.40;;;5.50;99.90;;;;;;4989954;28;21129;-73
2022/11/12 01:09:33;;;;;;;2.50;2.30;;;5.60;99.90;;;;;;4990974;28;20391;-72
2022/11/12 01:11:59;;;;;;;2.10;1.90;;;5.60;99.90;;;;;;4991114;28;20414;-72
2022/11/12 01:14:24;;;;;;;2.30;2.10;;;5.60;99.90;;;;;;4990824;28;20382;-73
2022/11/12 01:16:50;;;;;;;2.57;2.00;;;5.60;99.90;;;;;;4991005;28;20488;-72
2022/11/12 01:19:15;;;;;;;3.95;2.08;;;5.60;99.90;;;;;;4990893;28;20423;-72
2022/11/12 01:21:42;;;;;;;2.40;2.20;;;5.60;99.90;;;;;;4994999;28;20386;-71
2022/11/12 01:24:08;;;;;;;2.35;1.85;;;5.50;99.90;;;;;;4994676;28;20392;-72
2022/11/12 01:26:35;;;;;;;2.30;2.10;;;5.50;99.90;;;;;;4994831;28;20481;-72
2022/11/12 01:29:00;;;;;;;3.10;2.50;;;5.50;99.90;;;;;;4994696;28;20429;-72
2022/11/12 01:31:27;;;;;;;3.00;2.70;;;5.40;99.90;;;;;;4994746;28;20386;-72
2022/11/12 01:33:55;;;;;;;4.00;2.90;;;5.30;99.90;;;;;;5002035;28;20483;-72
2022/11/12 01:36:22;;;;;;;3.40;3.00;;;5.30;99.90;;;;;;5014562;28;20759;-72
2022/11/12 01:38:48;;;;;;;3.80;3.13;;;5.10;99.90;;;;;;5014322;28;20388;-71
2022/11/12 01:41:20;;;;;;;3.92;3.20;;;5.10;99.90;;;;;;5014415;28;20391;-73
2022/11/12 01:43:46;;;;;;;3.17;2.88;;;5.10;99.90;;;;;;5013416;28;20862;-72
2022/11/12 01:46:24;;;;;;;3.25;2.65;;;5.20;99.90;;;;;;5014236;28;20450;-73
2022/11/12 01:49:14;;;;;;;3.58;2.70;;;5.00;99.90;;;;;;5014079;28;20787;-73
2022/11/12 01:51:45;;;;;;;3.10;2.80;;;5.10;99.90;;;;;;5014174;28;20842;-72
2022/11/12 01:54:14;;;;;;;2.67;2.47;;;5.10;99.90;;;;;;5013649;28;20392;-73
2022/11/12 01:56:40;;;;;;;2.38;2.17;;;5.00;99.90;;;;;;5014105;28;20431;-73
2022/11/12 01:59:24;;;;;;;3.00;2.63;;;5.00;99.90;;;;;;5013965;28;20392;-72
2022/11/12 02:01:49;;;;;;;3.00;2.67;;;5.00;99.90;;;;;;5013952;28;20460;-73
2022/11/12 02:04:15;;;;;;;3.90;3.00;;;4.90;99.90;;;;;;5013532;28;20381;-72
2022/11/12 02:06:43;;;;;;;2.80;2.50;;;4.90;99.90;;;;;;5013817;28;20393;-73
2022/11/12 02:09:09;;;;;;;3.35;2.50;;;5.00;99.90;;;;;;5013834;28;20424;-72
2022/11/12 02:11:34;;;;;;;3.55;3.25;;;4.80;99.90;;;;;;5013892;28;20884;-72
2022/11/12 02:14:00;;;;;;;4.00;3.03;;;4.80;99.90;;;;;;5013436;28;20384;-72
2022/11/12 02:16:27;;;;;;;7.30;6.70;;;4.70;99.90;;;;;;5013822;28;20442;-73
2022/11/12 02:18:52;;;;;;;7.40;6.70;;;5.00;99.90;;;;;;5013308;28;20397;-72
2022/11/12 02:21:20;;;;;;;9.43;8.40;;;5.00;99.90;;;;;;5013703;28;20391;-73
2022/11/12 02:23:46;;;;;;;9.40;8.40;;;5.10;99.90;;;;;;5013134;28;20396;-72
2022/11/12 02:26:11;;;;;;;9.93;9.02;;;5.20;99.90;;;;;;5013474;28;20381;-72
2022/11/12 02:28:37;;;;;;;11.35;10.05;;;5.00;99.90;;;;;;5008001;23;20470;-72
2022/11/12 02:31:02;;;;;;;9.77;8.80;;;4.90;99.90;;;;;;4953873;28;20469;-72
2022/11/12 02:33:28;;;;;;;10.83;9.73;;;4.80;99.90;;;;;;4958294;28;20388;-72
2022/11/12 02:35:53;;;;;;;11.93;10.30;;;4.70;99.90;;;;;;4973932;28;20454;-72
2022/11/12 02:38:19;;;;;;;10.00;9.00;;;4.80;99.90;;;;;;4973311;28;20531;-72
2022/11/12 02:40:44;;;;;;;10.03;9.00;;;4.70;99.90;;;;;;4973775;28;21061;-72
2022/11/12 02:43:10;;;;;;;10.30;9.30;;;4.70;99.90;;;;;;4973391;28;20884;-72
2022/11/12 02:45:35;;;;;;;10.30;9.38;;;4.80;99.90;;;;;;4973530;28;20475;-72
2022/11/12 02:48:01;;;;;;;9.73;8.93;;;4.90;99.90;;;;;;4973256;28;20495;-72
2022/11/12 02:50:26;;;;;;;9.75;8.75;;;5.00;99.90;;;;;;4973308;28;20396;-72
2022/11/12 02:52:52;;;;;;;9.50;8.60;;;4.90;99.90;;;;;;4973091;28;20394;-72
2022/11/12 02:55:17;;;;;;;9.00;8.10;;;5.10;99.90;;;;;;4973337;28;20396;-72
2022/11/12 02:57:43;;;;;;;7.90;7.20;;;5.10;99.90;;;;;;4973379;28;20443;-72
2022/11/12 03:00:11;;;;;;;7.00;6.30;;;4.90;99.90;;;;;;4973297;28;20483;-72
2022/11/12 03:02:57;;;;;;;6.63;5.93;;;5.00;99.90;;;;;;4972531;28;20400;-72
2022/11/12 03:05:24;;;;;;;4.70;4.30;;;5.10;99.90;;;;;;4973662;28;20488;-72
2022/11/12 03:07:49;;;;;;;4.40;4.10;;;5.00;99.90;;;;;;4973680;28;20511;-72
2022/11/12 03:10:15;;;;;;;4.65;4.10;;;5.00;99.90;;;;;;4973199;28;20527;-72
2022/11/12 03:12:40;;;;;;;4.22;3.83;;;5.10;99.90;;;;;;4971331;28;20454;-72
2022/11/12 03:15:06;;;;;;;4.25;3.83;;;5.00;99.90;;;;;;4973011;28;20404;-72
2022/11/12 03:17:33;;;;;;;3.90;3.35;;;4.80;99.90;;;;;;4973049;28;20392;-72
2022/11/12 03:19:59;;;;;;;4.60;4.10;;;4.80;99.90;;;;;;4972905;28;20396;-72
2022/11/12 03:22:24;;;;;;;4.07;3.67;;;4.80;99.90;;;;;;4972804;28;20392;-72
2022/11/12 03:24:50;;;;;;;3.20;2.90;;;4.70;99.90;;;;;;4972632;28;20410;-72
2022/11/12 03:27:15;;;;;;;3.40;3.10;;;4.70;99.90;;;;;;4971709;28;20408;-72
2022/11/12 03:29:41;;;;;;;3.10;2.90;;;4.70;99.90;;;;;;4972711;28;20409;-72
2022/11/12 03:32:06;;;;;;;3.90;3.07;;;4.70;99.90;;;;;;4972891;28;20408;-72
2022/11/12 03:34:32;;;;;;;4.80;2.70;;;4.50;99.90;;;;;;4959769;28;20460;-72
2022/11/12 03:36:57;;;;;;;3.40;3.08;;;4.40;99.90;;;;;;4953476;28;20753;-71
2022/11/12 03:39:23;;;;;;;2.70;2.50;;;4.30;99.90;;;;;;4953202;28;20386;-72
2022/11/12 03:41:48;;;;;;;4.38;2.53;;;4.20;99.90;;;;;;4953445;28;20896;-72
2022/11/12 03:44:14;;;;;;;2.50;2.30;;;4.10;99.90;;;;;;4952744;28;20409;-72
2022/11/12 03:46:39;;;;;;;2.70;2.40;;;4.10;99.90;;;;;;4953226;28;20495;-72
2022/11/12 03:49:05;;;;;;;2.63;2.17;;;4.00;99.90;;;;;;4953221;28;20410;-72
2022/11/12 03:51:31;;;;;;;3.10;2.13;;;4.00;99.90;;;;;;4953146;28;20460;-72
2022/11/12 03:53:56;;;;;;;2.40;2.20;;;4.20;99.90;;;;;;4952810;28;20909;-72
2022/11/12 03:56:22;;;;;;;2.20;2.00;;;4.10;99.90;;;;;;4953284;28;20393;-72
2022/11/12 03:58:47;;;;;;;2.10;1.93;;;4.00;99.90;;;;;;4952993;28;20412;-72
2022/11/12 04:01:13;;;;;;;1.97;1.87;;;4.10;99.90;;;;;;4953001;28;20404;-72
2022/11/12 04:03:39;;;;;;;2.03;1.80;;;3.90;99.90;;;;;;4951497;28;20390;-72
2022/11/12 04:08:49;;;;;;;2.50;2.30;;;3.90;99.90;;;;;;4952613;29;20527;-72
2022/11/12 04:11:15;;;;;;;2.67;2.30;;;3.80;99.90;;;;;;4952783;28;20393;-72
2022/11/12 04:13:42;;;;;;;2.20;2.10;;;3.90;99.90;;;;;;4952364;28;20398;-72
2022/11/12 04:21:53;;;;;;;2.30;2.10;;;3.80;99.90;;;;;;4952863;29;20974;-72
2022/11/12 04:27:31;;;;;;;2.22;2.03;;;3.90;99.90;;;;;;4952707;29;20417;-72
2022/11/12 04:30:15;;;;;;;2.23;2.10;;;3.90;99.90;;;;;;4952304;29;20496;-72
2022/11/12 04:32:48;;;;;;;2.20;2.00;;;3.90;99.90;;;;;;4952511;28;20881;-72
2022/11/12 04:35:14;;;;;;;3.75;2.30;;;4.00;99.90;;;;;;4970674;28;20466;-72
2022/11/12 04:37:43;;;;;;;2.08;1.90;;;3.90;99.90;;;;;;4971930;28;20924;-72
2022/11/12 04:45:53;;;;;;;2.40;2.10;;;3.80;99.90;;;;;;4971981;28;20387;-72
2022/11/12 04:48:20;;;;;;;3.00;2.23;;;3.80;99.90;;;;;;4971673;28;20430;-71
2022/11/12 04:50:49;;;;;;;2.20;2.10;;;3.90;99.90;;;;;;4971655;28;20380;-72
2022/11/12 04:53:15;;;;;;;2.30;2.00;;;3.80;99.90;;;;;;4971435;28;20395;-71
2022/11/12 04:55:40;;;;;;;3.28;2.28;;;3.70;99.90;;;;;;4970970;28;20396;-71
2022/11/12 04:58:06;;;;;;;2.43;2.23;;;3.70;99.90;;;;;;4971282;28;20392;-72
2022/11/12 05:00:31;;;;;;;2.40;2.20;;;3.80;99.90;;;;;;4970308;28;20424;-71
2022/11/12 05:02:58;;;;;;;4.32;2.40;;;3.80;99.90;;;;;;4970819;28;20462;-72
2022/11/12 05:05:24;;;;;;;2.90;2.30;;;3.80;99.90;;;;;;4971522;28;20420;-71
2022/11/12 05:07:50;;;;;;;2.20;2.00;;;3.70;99.90;;;;;;4971019;28;20438;-72
2022/11/12 05:10:15;;;;;;;2.37;2.17;;;3.70;99.90;;;;;;4970174;28;20902;-72
2022/11/12 05:12:42;;;;;;;2.40;2.20;;;3.60;99.90;;;;;;4971319;28;20384;-72
2022/11/12 05:15:08;;;;;;;2.10;1.98;;;3.70;99.90;;;;;;4971654;28;20829;-72
2022/11/12 05:17:34;;;;;;;1.98;1.88;;;3.70;99.90;;;;;;4971358;28;20384;-72
2022/11/12 05:19:59;;;;;;;3.00;2.43;;;3.70;99.90;;;;;;4971399;28;20483;-72
2022/11/12 05:22:25;;;;;;;2.60;2.40;;;3.70;99.90;;;;;;4971064;28;20405;-72
2022/11/12 05:24:50;;;;;;;2.23;2.03;;;3.70;99.90;;;;;;4971185;28;20400;-72
2022/11/12 05:27:19;;;;;;;2.60;2.40;;;3.60;99.90;;;;;;4971222;28;20411;-72
2022/11/12 05:29:44;;;;;;;2.88;2.10;;;3.70;99.90;;;;;;4971217;28;20423;-72
2022/11/12 05:32:13;;;;;;;2.00;1.90;;;3.60;99.90;;;;;;4971194;28;20384;-72
2022/11/12 05:34:39;;;;;;;2.20;2.00;;;3.60;99.90;;;;;;4957281;28;20390;-72
2022/11/12 05:37:06;;;;;;;2.00;1.80;;;3.60;99.90;;;;;;4951895;28;20452;-72
2022/11/12 05:39:31;;;;;;;2.92;2.13;;;3.50;99.90;;;;;;4951937;28;20484;-72
2022/11/12 05:41:57;;;;;;;2.20;2.00;;;3.60;99.90;;;;;;4951941;28;20541;-72
2022/11/12 05:44:22;;;;;;;2.90;2.30;;;3.50;99.90;;;;;;4951713;28;20791;-69
2022/11/12 05:46:49;;;;;;;1.90;1.80;;;3.50;99.90;;;;;;4951771;28;20999;-69
2022/11/12 05:49:15;;;;;;;1.92;1.80;;;3.30;99.90;;;;;;4950621;28;21051;-68
2022/11/12 05:51:41;;;;;;;2.10;1.90;;;3.40;99.90;;;;;;4951757;28;21187;-68
2022/11/12 05:54:07;;;;;;;2.00;1.80;;;3.40;99.90;;;;;;4951641;28;20394;-68
2022/11/12 05:56:33;;;;;;;2.00;1.80;;;3.40;99.90;;;;;;4951885;28;20421;-68
2022/11/12 05:58:59;;;;;;;2.00;1.80;;;3.30;99.90;;;;;;4951793;28;20911;-68
2022/11/12 06:01:25;;;;;;;2.40;2.10;;;3.40;99.90;;;;;;4951154;28;20434;-68
2022/11/12 06:03:50;;;;;;;3.47;2.20;;;3.30;99.90;;;;;;4951460;28;20400;-68
2022/11/12 06:06:16;;;;;;;2.57;1.80;;;3.20;99.90;;;;;;4951792;28;20485;-68
2022/11/12 06:08:41;;;;;;;2.17;1.97;;;3.40;99.90;;;;;;4953027;28;20405;-68
2022/11/12 06:11:07;;;;;;;3.00;1.80;;;3.40;99.90;;;;;;4954681;29;20394;-68
2022/11/12 06:13:32;;;;;;;2.10;1.70;;;3.50;99.90;;;;;;4954963;29;20396;-68
2022/11/12 06:15:58;;;;;;;1.80;1.70;;;3.40;99.90;;;;;;4953779;29;20389;-68
2022/11/12 06:18:24;;;;;;;2.60;2.00;;;3.40;99.90;;;;;;4954977;28;20394;-68
2022/11/12 06:23:34;;;;;;;2.80;2.30;;;3.30;99.90;;;;;;4954953;29;20393;-67
2022/11/12 06:26:01;;;;;;;2.10;2.00;;;3.30;99.90;;;;;;4955845;28;20815;-68
2022/11/12 06:28:27;;;;;;;3.40;2.60;;;3.30;99.90;;;;;;4954790;28;20429;-67
2022/11/12 06:30:53;;;;;;;3.38;3.00;;;3.30;99.90;;;;;;4954848;28;20786;-68
2022/11/12 06:33:18;;;;;;;3.30;3.00;;;3.10;99.90;;;;;;4954412;28;20390;-67
2022/11/12 06:35:44;;;;;;;5.93;5.43;;;3.10;99.90;;;;;;4954681;28;20394;-68
2022/11/12 06:38:09;;;;;;;6.10;5.50;;;3.00;99.90;;;;;;4954523;28;20394;-68
2022/11/12 06:40:35;;;;;;;5.78;4.93;;;3.10;99.90;;;;;;4954657;28;20492;-67
2022/11/12 06:43:00;;;;;;;4.00;3.70;;;3.30;99.90;;;;;;4954294;28;20442;-68
2022/11/12 06:45:26;;;;;;;3.17;2.97;;;3.20;99.90;;;;;;4954593;28;20390;-69
2022/11/12 06:47:51;;;;;;;3.25;2.95;;;3.10;99.90;;;;;;4947394;28;20445;-68
2022/11/12 06:50:17;;;;;;;2.70;2.50;;;3.30;99.90;;;;;;4952663;29;20460;-69
2022/11/12 06:52:42;;;;;;;2.70;2.50;;;3.30;99.90;;;;;;4950308;28;20482;-68
2022/11/12 06:55:08;;;;;;;2.80;2.60;;;3.20;99.90;;;;;;4952934;29;20937;-68
2022/11/12 06:57:34;;;;;;;2.80;2.60;;;3.20;99.90;;;;;;4953420;29;20386;-69
2022/11/12 07:00:00;;;;;;;2.65;2.45;;;3.30;99.90;;;;;;4954120;29;20398;-69
2022/11/12 07:02:26;;;;;;;2.72;2.53;;;3.40;99.90;;;;;;4953956;28;20401;-68
2022/11/12 07:04:51;;;;;;;4.43;2.50;;;3.40;99.90;;;;;;4953841;28;20394;-69
2022/11/12 07:07:17;;;;;;;3.00;2.80;;;3.40;99.90;;;;;;4953945;29;20907;-68
2022/11/12 07:09:42;;;;;;;3.80;3.07;;;3.50;99.90;;;;;;4953999;29;20428;-69
2022/11/12 07:12:08;;;;;;;2.80;2.60;;;3.50;99.90;;;;;;4950803;29;20402;-70
2022/11/12 07:14:33;;;;;;;3.90;2.57;;;3.50;99.90;;;;;;4948727;28;20464;-69
2022/11/12 07:16:59;;;;;;;2.57;2.37;;;3.40;99.90;;;;;;4952716;28;20450;-69
2022/11/12 07:19:25;;;;;;;2.50;2.30;;;3.50;99.90;;;;;;4953520;29;20389;-69
2022/11/12 07:21:51;;;;;;;2.97;2.60;;;3.50;99.90;;;;;;4953716;29;20824;-68
2022/11/12 07:24:16;;;;;;;3.63;2.60;;;3.80;99.90;;;;;;4953398;28;20394;-69
2022/11/12 07:26:42;;;;;;;3.08;2.88;;;3.80;99.90;;;;;;4952217;29;20397;-69
2022/11/12 07:29:08;;;;;;;3.22;2.67;;;3.70;99.90;;;;;;4953440;28;20421;-68
2022/11/12 07:31:33;;;;;;;2.85;2.65;;;3.80;99.90;;;;;;4953492;29;20883;-69
2022/11/12 07:33:59;;;;;;;3.28;2.90;;;3.90;99.90;;;;;;4954142;28;20393;-68
2022/11/12 07:36:25;;;;;;;3.10;2.80;;;4.00;99.90;;;;;;4953717;28;20422;-68
2022/11/12 07:38:52;;;;;;;3.42;2.60;;;4.00;99.90;;;;;;4953357;28;20393;-68
2022/11/12 07:41:20;;;;;;;3.00;2.70;;;4.10;99.90;;;;;;4953551;28;20389;-69
2022/11/12 07:43:47;;;;;;;3.42;2.80;;;4.20;99.90;;;;;;4949444;28;20413;-68
2022/11/12 07:46:14;;;;;;;3.00;2.80;;;4.20;99.90;;;;;;4951993;28;20880;-68
2022/11/12 07:48:40;;;;;;;2.83;2.63;;;4.10;99.90;;;;;;4952225;28;20424;-68
2022/11/12 07:51:11;;;;;;;3.92;3.13;;;4.30;99.90;;;;;;4953209;28;20398;-68
2022/11/12 07:53:37;;;;;;;3.50;3.10;;;4.30;99.90;;;;;;4952936;28;20386;-68
2022/11/12 07:56:03;;;;;;;4.22;3.83;;;4.50;99.90;;;;;;4953134;29;20399;-68
2022/11/12 07:58:33;;;;;;;4.10;3.80;;;4.60;99.90;;;;;;4952968;28;20942;-68
2022/11/12 08:01:10;;;;;;;5.43;4.87;;;4.90;99.90;;;;;;4952692;28;20740;-68
2022/11/12 08:03:36;;;;;;;6.40;4.95;;;5.10;99.90;;;;;;4948556;29;20406;-68
2022/11/12 08:06:01;;;;;;;5.57;5.07;;;5.10;99.90;;;;;;4952748;28;20871;-68
2022/11/12 08:08:27;;;;;;;6.57;5.97;;;5.10;99.90;;;;;;4951224;28;20461;-68
2022/11/12 08:10:57;;;;;;;12.00;5.90;;;5.40;99.90;;;;;;4953060;28;20381;-69
2022/11/12 08:13:23;;;;;;;8.27;5.75;;;5.30;99.90;;;;;;4952599;28;20472;-68
2022/11/12 08:15:49;;;;;;;6.82;6.13;;;5.40;99.90;;;;;;4952621;28;20464;-68
2022/11/12 08:18:15;;;;;;;11.53;6.17;;;5.50;99.90;;;;;;4950259;28;20492;-69
2022/11/12 08:20:40;;;;;;;9.57;6.40;;;5.30;99.90;;;;;;4948990;28;20449;-68
2022/11/12 08:23:07;;;;;;;7.65;6.10;;;5.30;99.90;;;;;;4951592;29;20396;-68
2022/11/12 08:25:32;;;;;;;6.90;6.20;;;5.40;99.90;;;;;;4949542;28;20753;-68
2022/11/12 08:27:59;;;;;;;6.27;5.67;;;5.50;99.90;;;;;;4942765;28;20743;-68
2022/11/12 08:30:26;;;;;;;6.22;5.63;;;5.40;99.90;;;;;;4950612;28;20895;-68
2022/11/12 08:32:59;;;;;;;9.40;6.25;;;5.50;99.90;;;;;;4952064;28;20429;-68
2022/11/12 08:35:26;;;;;;;10.25;6.57;;;5.50;99.90;;;;;;4962673;28;20402;-68
2022/11/12 08:37:57;;;;;;;6.85;6.15;;;5.60;99.90;;;;;;4952464;28;20479;-68
2022/11/12 08:40:22;;;;;;;11.02;7.03;;;5.60;99.90;;;;;;4950739;28;20446;-69
2022/11/12 08:42:55;;;;;;;9.60;7.00;;;5.50;99.90;;;;;;4950074;28;20397;-68
2022/11/12 08:45:20;;;;;;;8.52;6.60;;;5.60;99.90;;;;;;4952202;28;20813;-68
2022/11/12 08:47:46;;;;;;;7.60;5.72;;;5.50;99.90;;;;;;4952071;28;20449;-68
2022/11/12 08:50:11;;;;;;;7.65;6.70;;;5.50;99.90;;;;;;4947573;28;20419;-68
2022/11/12 08:52:37;;;;;;;6.57;5.90;;;5.70;99.90;;;;;;4954156;28;20394;-67
2022/11/12 08:55:02;;;;;;;11.53;6.60;;;5.70;99.90;;;;;;4952181;28;20409;-67
2022/11/12 08:57:28;;;;;;;7.55;5.60;;;5.50;99.90;;;;;;4952376;28;20398;-68
2022/11/12 08:59:53;;;;;;;7.97;5.63;;;5.60;99.90;;;;;;4952445;28;20756;-67
2022/11/12 09:02:19;;;;;;;5.90;5.00;;;5.70;99.90;;;;;;4950923;28;20440;-67
2022/11/12 09:04:44;;;;;;;6.70;5.67;;;5.60;99.90;;;;;;4948098;29;20440;-67
2022/11/12 09:07:10;;;;;;;7.13;6.20;;;5.60;99.90;;;;;;4950397;28;20831;-68
2022/11/12 09:09:38;;;;;;;8.93;6.40;;;5.80;99.90;;;;;;4952030;28;20425;-67
2022/11/12 09:12:07;;;;;;;11.40;6.80;;;5.90;99.90;;;;;;4948199;28;20410;-68
2022/11/12 09:14:32;;;;;;;8.57;6.80;;;5.70;99.90;;;;;;4947135;28;20449;-68
2022/11/12 09:16:58;;;;;;;9.30;6.80;;;5.70;99.90;;;;;;4952043;28;21051;-69
2022/11/12 09:19:23;;;;;;;8.40;7.10;;;5.70;99.90;;;;;;4951861;29;20393;-68
2022/11/12 09:21:49;;;;;;;35.07;26.00;;;5.80;99.90;;;;;;4952008;29;20449;-68
2022/11/12 09:24:14;;;;;;;14.77;11.67;;;6.10;99.90;;;;;;4951630;29;20389;-69
2022/11/12 09:26:40;;;;;;;9.68;8.15;;;6.20;99.90;;;;;;4951650;29;20409;-69
2022/11/12 09:29:05;;;;;;;10.63;9.13;;;6.30;99.90;;;;;;4951206;29;20462;-69
2022/11/12 09:31:31;;;;;;;11.60;8.57;;;6.50;99.90;;;;;;4951455;28;20394;-69
2022/11/12 09:33:56;;;;;;;11.40;8.40;;;6.50;99.90;;;;;;4944435;28;20975;-69
2022/11/12 09:36:22;;;;;;;11.40;8.47;;;6.70;99.90;;;;;;4947322;28;20480;-68
2022/11/12 09:38:47;;;;;;;12.73;9.50;;;6.70;99.90;;;;;;4951519;28;20455;-68
2022/11/12 09:41:14;;;;;;;10.23;9.07;;;6.80;99.90;;;;;;4951758;28;20409;-68
2022/11/12 09:43:51;;;;;;;9.90;8.20;;;6.80;99.90;;;;;;4950495;29;20891;-69
2022/11/12 09:46:38;;;;;;;10.05;8.30;;;7.00;99.90;;;;;;4954510;28;20413;-69
2022/11/12 09:49:06;;;;;;;9.57;8.10;;;6.70;99.90;;;;;;4955272;28;20460;-68
2022/11/12 09:51:35;;;;;;;8.93;7.57;;;6.90;99.90;;;;;;4955528;28;20480;-69
2022/11/12 09:54:12;;;;;;;8.90;7.80;;;6.90;99.90;;;;;;4955321;28;20480;-68
2022/11/12 09:56:38;;;;;;;9.20;7.80;;;7.00;99.90;;;;;;4955545;28;20393;-69
2022/11/12 09:59:11;;;;;;;9.27;7.25;;;7.10;99.90;;;;;;4955121;28;20398;-68
2022/11/12 10:02:22;;;;;;;8.95;8.02;;;6.90;99.90;;;;;;4955388;28;20440;-69
2022/11/12 10:05:11;;;;;;;9.63;8.00;;;7.00;99.90;;;;;;4933483;29;20403;-69
2022/11/12 10:07:39;;;;;;;8.60;7.55;;;7.20;99.90;;;;;;4954567;28;20417;-68
2022/11/12 10:10:30;;;;;;;9.52;7.90;;;7.40;99.90;;;;;;4955209;28;20386;-68
2022/11/12 10:13:11;;;;;;;9.90;8.00;;;7.00;99.90;;;;;;4954917;28;20791;-67
2022/11/12 10:19:21;;;;;;;9.30;7.80;;;7.10;99.90;;;;;;4955412;29;20380;-70
2022/11/12 10:22:20;;;;;;;10.30;8.30;;;7.20;99.90;;;;;;4952928;28;20434;-69
2022/11/12 10:24:47;;;;;;;9.23;8.30;;;7.30;99.90;;;;;;4964562;28;20391;-69
2022/11/12 10:27:21;;;;;;;8.93;7.85;;;7.10;99.90;;;;;;4954763;28;20405;-70
2022/11/12 10:30:02;;;;;;;8.98;7.50;;;7.20;99.90;;;;;;4972191;28;20392;-69
2022/11/12 10:32:28;;;;;;;8.02;7.03;;;7.30;99.90;;;;;;4974201;28;20384;-69
2022/11/12 10:34:53;;;;;;;8.17;7.37;;;7.20;99.90;;;;;;4962519;28;20395;-69
2022/11/12 10:37:52;;;;;;;9.87;8.03;;;7.40;99.90;;;;;;4953598;29;20417;-68
2022/11/12 10:40:38;;;;;;;9.40;7.85;;;7.70;99.90;;;;;;4949671;28;21000;-68
2022/11/12 10:43:15;;;;;;;8.70;7.47;;;7.40;99.90;;;;;;4958020;28;20408;-68
2022/11/12 10:45:45;;;;;;;9.07;7.43;;;7.60;99.90;;;;;;4972444;28;20427;-68
2022/11/12 10:48:31;;;;;;;9.45;7.60;;;7.80;99.90;;;;;;4973128;28;20423;-68
2022/11/12 10:50:57;;;;;;;9.95;7.90;;;7.90;99.90;;;;;;4973326;28;20450;-68
2022/11/12 10:53:35;;;;;;;9.40;8.40;;;7.90;99.90;;;;;;4972011;28;20980;-68
2022/11/12 10:56:03;;;;;;;9.98;8.00;;;7.90;99.90;;;;;;4973349;28;20385;-68
2022/11/12 10:58:29;;;;;;;9.50;8.10;;;7.90;99.90;;;;;;4973691;28;20403;-68
2022/11/12 11:01:02;;;;;;;10.35;9.07;;;8.10;99.90;;;;;;4973697;28;20399;-68
2022/11/12 11:03:35;;;;;;;9.73;8.50;;;7.90;99.90;;;;;;4973642;28;20855;-70
2022/11/12 11:06:24;;;;;;;10.38;8.88;;;8.00;99.90;;;;;;4973578;28;20554;-69
2022/11/12 11:09:08;;;;;;;12.27;9.68;;;7.90;99.90;;;;;;4973379;28;20408;-68
2022/11/12 11:11:33;;;;;;;11.30;10.10;;;7.80;99.90;;;;;;4973523;28;20389;-69
2022/11/12 11:14:27;;;;;;;12.77;10.50;;;7.60;99.90;;;;;;4972004;28;20410;-69
2022/11/12 11:16:57;;;;;;;15.13;11.10;;;7.60;99.90;;;;;;4973436;28;20479;-69
2022/11/12 11:19:30;;;;;;;12.50;10.60;;;7.80;99.90;;;;;;4973829;28;20389;-68
2022/11/12 11:22:17;;;;;;;12.63;10.32;;;7.70;99.90;;;;;;4973308;28;20846;-69
2022/11/12 11:25:10;;;;;;;12.45;10.45;;;7.90;99.90;;;;;;4972638;28;20462;-69
2022/11/12 11:28:13;;;;;;;14.30;11.43;;;7.80;99.90;;;;;;4973008;28;20442;-69
2022/11/12 11:30:58;;;;;;;14.50;11.25;;;7.80;99.90;;;;;;4973165;28;20464;-69
2022/11/12 11:33:49;;;;;;;13.07;10.80;;;8.60;99.90;;;;;;4972869;28;20399;-69
2022/11/12 11:36:20;;;;;;;11.60;10.40;;;8.80;99.90;;;;;;4973011;28;20376;-69
2022/11/12 11:39:10;;;;;;;12.57;9.82;;;9.00;99.90;;;;;;4973090;28;20392;-69
2022/11/12 11:41:48;;;;;;;12.10;10.10;;;9.30;99.90;;;;;;4973223;28;20474;-69
2022/11/12 11:44:13;;;;;;;12.52;9.98;;;9.30;99.90;;;;;;4972552;28;20424;-69
2022/11/12 11:46:53;;;;;;;11.98;9.20;;;9.50;99.90;;;;;;4972743;28;20424;-69
2022/11/12 11:49:54;;;;;;;9.05;8.15;;;9.30;99.90;;;;;;4972606;28;20491;-69
2022/11/12 11:52:44;;;;;;;10.95;9.38;;;9.30;99.90;;;;;;4972538;28;20491;-69
2022/11/12 11:55:27;;;;;;;9.70;8.70;;;9.30;99.90;;;;;;4972395;28;20380;-69
2022/11/12 11:58:08;;;;;;;9.70;8.70;;;9.70;99.90;;;;;;4971195;28;20392;-69
2022/11/12 12:00:44;;;;;;;9.63;8.63;;;9.80;99.90;;;;;;4971909;28;20395;-69
2022/11/12 12:03:18;;;;;;;11.07;9.55;;;9.90;99.90;;;;;;4971996;28;20391;-69
2022/11/12 12:05:49;;;;;;;11.23;9.50;;;9.40;99.90;;;;;;4971079;28;20404;-69
2022/11/12 12:08:34;;;;;;;11.90;10.40;;;9.40;99.90;;;;;;4955701;28;20417;-69
2022/11/12 12:11:14;;;;;;;12.15;10.27;;;9.20;99.90;;;;;;4952888;28;20417;-69
2022/11/12 12:14:05;;;;;;;13.20;10.60;;;9.10;99.90;;;;;;4949241;28;20855;-69
2022/11/12 12:16:57;;;;;;;13.50;11.30;;;8.90;99.90;;;;;;4952562;28;20386;-69
2022/11/12 12:19:55;;;;;;;13.60;10.90;;;8.50;99.90;;;;;;4952533;28;20390;-69
2022/11/12 12:22:37;;;;;;;12.05;10.75;;;8.70;99.90;;;;;;4952856;28;20382;-69
2022/11/12 12:25:22;;;;;;;12.57;11.13;;;8.20;99.90;;;;;;4952661;28;20397;-69
2022/11/12 12:28:04;;;;;;;12.65;10.60;;;8.10;99.90;;;;;;4951163;28;20448;-69
2022/11/12 12:30:36;;;;;;;14.55;12.23;;;8.30;99.90;;;;;;4952546;28;20408;-69
2022/11/12 12:33:27;;;;;;;15.32;12.70;;;8.10;99.90;;;;;;4952295;28;20378;-69
2022/11/12 12:36:01;;;;;;;16.65;12.95;;;8.20;99.90;;;;;;4952461;28;20434;-70
2022/11/12 12:38:45;;;;;;;16.25;13.70;;;8.20;99.90;;;;;;4952692;28;20448;-68
2022/11/12 12:41:37;;;;;;;17.65;13.85;;;8.30;99.90;;;;;;4952130;28;20389;-69
2022/11/12 12:44:08;;;;;;;16.67;13.90;;;8.30;99.90;;;;;;4952106;28;20829;-69
2022/11/12 12:46:41;;;;;;;16.70;14.25;;;8.20;99.90;;;;;;4952293;28;20394;-69
2022/11/12 12:49:15;;;;;;;17.35;14.32;;;8.30;99.90;;;;;;4952205;28;20946;-68
2022/11/12 12:51:41;;;;;;;18.88;15.88;;;8.20;99.90;;;;;;4952352;28;20394;-69
2022/11/12 12:54:34;;;;;;;17.87;15.10;;;8.20;99.90;;;;;;4951786;29;20894;-69
2022/11/12 12:57:02;;;;;;;17.08;13.93;;;8.20;99.90;;;;;;4952855;28;20470;-69
2022/11/12 12:59:28;;;;;;;17.88;14.88;;;8.10;99.90;;;;;;4952229;28;20390;-69
2022/11/12 13:01:59;;;;;;;17.98;14.45;;;8.10;99.90;;;;;;4952178;29;20390;-69
2022/11/12 13:04:55;;;;;;;18.67;14.43;;;8.10;99.90;;;;;;4952080;28;20951;-69
2022/11/12 13:07:55;;;;;;;15.95;13.60;;;8.00;99.90;;;;;;4949569;29;20422;-69
2022/11/12 13:10:43;;;;;;;17.17;14.32;;;8.00;99.90;;;;;;4940314;28;20406;-69
2022/11/12 13:13:18;;;;;;;18.55;15.43;;;8.00;99.90;;;;;;4950669;28;20453;-69
2022/11/12 13:15:47;;;;;;;18.60;15.40;;;7.90;99.90;;;;;;4954340;28;20796;-69
2022/11/12 13:18:38;;;;;;;21.83;16.52;;;7.80;99.90;;;;;;4958485;28;20952;-69
2022/11/12 13:21:30;;;;;;;19.75;15.90;;;7.80;99.90;;;;;;4958659;28;20422;-69
2022/11/12 13:24:06;;;;;;;20.60;16.05;;;8.00;99.90;;;;;;4976169;28;20400;-69
2022/11/12 13:26:46;;;;;;;18.30;15.73;;;7.90;99.90;;;;;;4962223;28;20774;-69
2022/11/12 13:29:24;;;;;;;19.20;16.38;;;7.90;99.90;;;;;;4958189;28;20521;-68
2022/11/12 13:32:09;;;;;;;19.73;15.80;;;7.90;99.90;;;;;;4958435;29;20385;-68